sensor_id;sensor_type;location;lat;lon;timestamp;temperature;humidity
9820;DHT22;4949;48.482;9.206;2023-08-06T00:02:12;17.00;90.10
9820;DHT22;4949;48.482;9.206;2023-08-06T00:07:18;16.90;90.30
9820;DHT22;4949;48.482;9.206;2023-08-06T00:12:19;16.80;90.60
9820;DHT22;4949;48.482;9.206;2023-08-06T00:17:22;16.70;90.80
9820;DHT22;4949;48.482;9.206;2023-08-06T00:22:25;16.80;90.90
9820;DHT22;4949;48.482;9.206;2023-08-06T00:27:26;16.60;90.20
9820;DHT22;4949;48.482;9.206;2023-08-06T00:32:26;16.60;88.40
9820;DHT22;4949;48.482;9.206;2023-08-06T00:37:30;16.60;88.60
9820;DHT22;4949;48.482;9.206;2023-08-06T00:42:30;16.40;89.50
9820;DHT22;4949;48.482;9.206;2023-08-06T00:47:37;16.30;90.40
9820;DHT22;4949;48.482;9.206;2023-08-06T00:52:40;16.20;90.20
9820;DHT22;4949;48.482;9.206;2023-08-06T00:57:43;16.20;88.30
9820;DHT22;4949;48.482;9.206;2023-08-06T01:02:44;16.20;85.50
9820;DHT22;4949;48.482;9.206;2023-08-06T01:18:16;16.10;84.50
9820;DHT22;4949;48.482;9.206;2023-08-06T01:23:18;16.00;83.90
9820;DHT22;4949;48.482;9.206;2023-08-06T01:33:43;16.00;83.00
9820;DHT22;4949;48.482;9.206;2023-08-06T01:38:45;16.00;82.60
9820;DHT22;4949;48.482;9.206;2023-08-06T01:43:46;15.90;83.80
9820;DHT22;4949;48.482;9.206;2023-08-06T01:48:48;15.80;84.30
9820;DHT22;4949;48.482;9.206;2023-08-06T01:53:51;15.80;83.80
9820;DHT22;4949;48.482;9.206;2023-08-06T01:58:54;15.80;83.20
9820;DHT22;4949;48.482;9.206;2023-08-06T02:03:57;15.80;83.40
9820;DHT22;4949;48.482;9.206;2023-08-06T02:08:58;15.70;84.50
9820;DHT22;4949;48.482;9.206;2023-08-06T02:13:59;15.70;85.00
9820;DHT22;4949;48.482;9.206;2023-08-06T02:19:02;15.60;84.80
9820;DHT22;4949;48.482;9.206;2023-08-06T02:24:03;15.60;85.70
9820;DHT22;4949;48.482;9.206;2023-08-06T02:29:06;15.50;86.30
9820;DHT22;4949;48.482;9.206;2023-08-06T02:34:09;15.50;86.90
9820;DHT22;4949;48.482;9.206;2023-08-06T02:39:10;15.40;86.70
9820;DHT22;4949;48.482;9.206;2023-08-06T02:44:13;15.50;85.20
9820;DHT22;4949;48.482;9.206;2023-08-06T02:49:14;15.50;83.60
9820;DHT22;4949;48.482;9.206;2023-08-06T02:54:15;15.50;84.10
9820;DHT22;4949;48.482;9.206;2023-08-06T02:59:16;15.50;83.90
9820;DHT22;4949;48.482;9.206;2023-08-06T03:04:17;15.50;84.40
9820;DHT22;4949;48.482;9.206;2023-08-06T03:09:20;15.50;84.50
9820;DHT22;4949;48.482;9.206;2023-08-06T03:14:21;15.60;84.70
9820;DHT22;4949;48.482;9.206;2023-08-06T03:19:26;15.60;84.40
9820;DHT22;4949;48.482;9.206;2023-08-06T03:24:27;15.60;84.40
9820;DHT22;4949;48.482;9.206;2023-08-06T03:29:28;15.60;84.70
9820;DHT22;4949;48.482;9.206;2023-08-06T03:34:31;15.60;84.20
9820;DHT22;4949;48.482;9.206;2023-08-06T03:39:31;15.60;84.50
9820;DHT22;4949;48.482;9.206;2023-08-06T03:44:34;15.60;84.10
9820;DHT22;4949;48.482;9.206;2023-08-06T03:49:40;15.60;84.80
9820;DHT22;4949;48.482;9.206;2023-08-06T03:54:41;15.60;85.60
9820;DHT22;4949;48.482;9.206;2023-08-06T03:59:43;15.60;85.90
9820;DHT22;4949;48.482;9.206;2023-08-06T04:04:44;15.50;86.90
9820;DHT22;4949;48.482;9.206;2023-08-06T04:09:52;15.50;88.70
9820;DHT22;4949;48.482;9.206;2023-08-06T04:14:58;15.40;90.10
9820;DHT22;4949;48.482;9.206;2023-08-06T04:19:59;15.30;90.90
9820;DHT22;4949;48.482;9.206;2023-08-06T04:25:00;15.20;91.40
9820;DHT22;4949;48.482;9.206;2023-08-06T04:30:01;15.20;91.40
9820;DHT22;4949;48.482;9.206;2023-08-06T04:35:05;15.30;91.10
9820;DHT22;4949;48.482;9.206;2023-08-06T04:40:06;15.20;91.40
9820;DHT22;4949;48.482;9.206;2023-08-06T04:45:08;15.10;91.40
9820;DHT22;4949;48.482;9.206;2023-08-06T04:50:09;14.90;91.30
9820;DHT22;4949;48.482;9.206;2023-08-06T04:55:09;14.90;91.20
9820;DHT22;4949;48.482;9.206;2023-08-06T05:00:10;14.90;91.20
9820;DHT22;4949;48.482;9.206;2023-08-06T05:05:11;14.90;91.30
9820;DHT22;4949;48.482;9.206;2023-08-06T05:10:14;14.80;91.20
9820;DHT22;4949;48.482;9.206;2023-08-06T05:15:15;14.80;91.50
9820;DHT22;4949;48.482;9.206;2023-08-06T05:20:16;14.80;91.30
9820;DHT22;4949;48.482;9.206;2023-08-06T05:25:17;14.90;91.10
9820;DHT22;4949;48.482;9.206;2023-08-06T05:30:20;15.00;91.00
9820;DHT22;4949;48.482;9.206;2023-08-06T05:35:23;14.90;90.60
9820;DHT22;4949;48.482;9.206;2023-08-06T05:40:24;15.00;90.90
9820;DHT22;4949;48.482;9.206;2023-08-06T05:45:27;14.90;90.70
9820;DHT22;4949;48.482;9.206;2023-08-06T05:50:30;14.90;90.60
9820;DHT22;4949;48.482;9.206;2023-08-06T05:55:33;15.00;89.50
9820;DHT22;4949;48.482;9.206;2023-08-06T06:00:37;15.00;88.50
9820;DHT22;4949;48.482;9.206;2023-08-06T06:05:38;15.00;88.70
9820;DHT22;4949;48.482;9.206;2023-08-06T06:10:41;15.00;89.10
9820;DHT22;4949;48.482;9.206;2023-08-06T06:15:46;14.90;89.80
9820;DHT22;4949;48.482;9.206;2023-08-06T06:20:47;14.70;90.30
9820;DHT22;4949;48.482;9.206;2023-08-06T06:25:49;14.70;90.30
9820;DHT22;4949;48.482;9.206;2023-08-06T06:30:52;14.90;90.70
9820;DHT22;4949;48.482;9.206;2023-08-06T06:35:55;15.00;90.30
9820;DHT22;4949;48.482;9.206;2023-08-06T06:40:58;15.10;90.20
9820;DHT22;4949;48.482;9.206;2023-08-06T06:45:59;15.20;89.50
9820;DHT22;4949;48.482;9.206;2023-08-06T06:51:00;15.30;89.60
9820;DHT22;4949;48.482;9.206;2023-08-06T06:56:03;15.30;89.00
9820;DHT22;4949;48.482;9.206;2023-08-06T07:01:04;15.30;87.80
9820;DHT22;4949;48.482;9.206;2023-08-06T07:06:05;15.20;89.20
9820;DHT22;4949;48.482;9.206;2023-08-06T07:11:07;15.20;89.50
9820;DHT22;4949;48.482;9.206;2023-08-06T07:16:08;15.20;89.50
9820;DHT22;4949;48.482;9.206;2023-08-06T07:21:08;15.30;89.90
9820;DHT22;4949;48.482;9.206;2023-08-06T07:26:09;15.40;89.30
9820;DHT22;4949;48.482;9.206;2023-08-06T07:31:10;15.20;90.40
9820;DHT22;4949;48.482;9.206;2023-08-06T07:36:14;15.20;90.50
9820;DHT22;4949;48.482;9.206;2023-08-06T07:41:15;15.20;90.30
9820;DHT22;4949;48.482;9.206;2023-08-06T07:46:16;15.10;90.20
9820;DHT22;4949;48.482;9.206;2023-08-06T07:51:17;15.20;90.00
9820;DHT22;4949;48.482;9.206;2023-08-06T07:56:17;15.10;90.10
9820;DHT22;4949;48.482;9.206;2023-08-06T08:01:20;15.30;90.00
9820;DHT22;4949;48.482;9.206;2023-08-06T08:06:21;15.10;90.30
9820;DHT22;4949;48.482;9.206;2023-08-06T08:11:22;15.20;90.20
9820;DHT22;4949;48.482;9.206;2023-08-06T08:16:30;15.30;89.00
9820;DHT22;4949;48.482;9.206;2023-08-06T08:21:33;15.30;89.10
9820;DHT22;4949;48.482;9.206;2023-08-06T08:26:35;15.30;89.10
9820;DHT22;4949;48.482;9.206;2023-08-06T08:31:36;15.20;90.10
9820;DHT22;4949;48.482;9.206;2023-08-06T08:36:39;15.20;90.60
9820;DHT22;4949;48.482;9.206;2023-08-06T08:41:40;15.00;90.30
9820;DHT22;4949;48.482;9.206;2023-08-06T08:46:43;15.00;90.80
9820;DHT22;4949;48.482;9.206;2023-08-06T08:51:45;15.10;90.80
9820;DHT22;4949;48.482;9.206;2023-08-06T08:56:47;15.30;90.60
9820;DHT22;4949;48.482;9.206;2023-08-06T09:01:48;15.40;90.00
9820;DHT22;4949;48.482;9.206;2023-08-06T09:06:52;15.30;89.40
9820;DHT22;4949;48.482;9.206;2023-08-06T09:12:10;15.20;90.10
9820;DHT22;4949;48.482;9.206;2023-08-06T09:17:17;15.30;90.00
9820;DHT22;4949;48.482;9.206;2023-08-06T09:22:20;15.40;90.10
9820;DHT22;4949;48.482;9.206;2023-08-06T09:27:22;15.40;90.30
9820;DHT22;4949;48.482;9.206;2023-08-06T09:32:24;15.60;90.50
9820;DHT22;4949;48.482;9.206;2023-08-06T09:37:35;15.60;90.00
9820;DHT22;4949;48.482;9.206;2023-08-06T09:42:36;15.70;90.30
9820;DHT22;4949;48.482;9.206;2023-08-06T09:47:37;15.90;90.20
9820;DHT22;4949;48.482;9.206;2023-08-06T09:52:38;16.10;88.50
9820;DHT22;4949;48.482;9.206;2023-08-06T09:57:42;15.90;89.20
9820;DHT22;4949;48.482;9.206;2023-08-06T10:02:46;15.70;90.60
9820;DHT22;4949;48.482;9.206;2023-08-06T10:07:51;15.50;90.60
9820;DHT22;4949;48.482;9.206;2023-08-06T10:12:55;15.50;91.30
9820;DHT22;4949;48.482;9.206;2023-08-06T10:18:01;15.50;91.90
9820;DHT22;4949;48.482;9.206;2023-08-06T10:23:05;15.40;91.50
9820;DHT22;4949;48.482;9.206;2023-08-06T10:28:09;15.30;91.20
9820;DHT22;4949;48.482;9.206;2023-08-06T10:33:19;15.10;91.90
9820;DHT22;4949;48.482;9.206;2023-08-06T10:38:25;15.20;91.50
9820;DHT22;4949;48.482;9.206;2023-08-06T10:43:37;15.20;91.90
9820;DHT22;4949;48.482;9.206;2023-08-06T10:48:48;15.30;92.20
9820;DHT22;4949;48.482;9.206;2023-08-06T10:53:50;15.40;92.10
9820;DHT22;4949;48.482;9.206;2023-08-06T10:58:53;15.40;91.90
9820;DHT22;4949;48.482;9.206;2023-08-06T11:04:02;15.50;91.80
9820;DHT22;4949;48.482;9.206;2023-08-06T11:09:05;15.60;91.90
9820;DHT22;4949;48.482;9.206;2023-08-06T11:14:05;15.70;91.60
9820;DHT22;4949;48.482;9.206;2023-08-06T11:19:07;15.80;90.90
9820;DHT22;4949;48.482;9.206;2023-08-06T11:24:10;15.80;90.50
9820;DHT22;4949;48.482;9.206;2023-08-06T11:29:11;15.90;90.70
9820;DHT22;4949;48.482;9.206;2023-08-06T11:34:11;15.90;90.40
9820;DHT22;4949;48.482;9.206;2023-08-06T11:39:12;16.00;90.30
9820;DHT22;4949;48.482;9.206;2023-08-06T11:44:14;16.20;90.50
9820;DHT22;4949;48.482;9.206;2023-08-06T11:49:17;16.40;90.20
9820;DHT22;4949;48.482;9.206;2023-08-06T11:54:33;16.40;90.30
9820;DHT22;4949;48.482;9.206;2023-08-06T11:59:38;16.50;90.40
9820;DHT22;4949;48.482;9.206;2023-08-06T12:04:59;16.60;90.40
9820;DHT22;4949;48.482;9.206;2023-08-06T12:10:03;16.60;89.90
9820;DHT22;4949;48.482;9.206;2023-08-06T12:15:05;16.40;89.30
9820;DHT22;4949;48.482;9.206;2023-08-06T12:20:09;16.20;89.70
9820;DHT22;4949;48.482;9.206;2023-08-06T12:25:13;15.90;89.60
9820;DHT22;4949;48.482;9.206;2023-08-06T12:30:14;15.60;90.40
9820;DHT22;4949;48.482;9.206;2023-08-06T12:35:15;15.50;90.30
9820;DHT22;4949;48.482;9.206;2023-08-06T12:40:16;15.40;89.90
9820;DHT22;4949;48.482;9.206;2023-08-06T12:45:17;15.30;88.60
9820;DHT22;4949;48.482;9.206;2023-08-06T12:50:23;15.30;89.10
9820;DHT22;4949;48.482;9.206;2023-08-06T12:55:24;15.50;89.50
9820;DHT22;4949;48.482;9.206;2023-08-06T13:00:29;15.40;87.70
9820;DHT22;4949;48.482;9.206;2023-08-06T13:05:30;15.50;87.90
9820;DHT22;4949;48.482;9.206;2023-08-06T13:10:31;15.50;88.00
9820;DHT22;4949;48.482;9.206;2023-08-06T13:15:32;15.60;86.60
9820;DHT22;4949;48.482;9.206;2023-08-06T13:20:37;15.90;85.50
9820;DHT22;4949;48.482;9.206;2023-08-06T13:25:39;15.90;84.80
9820;DHT22;4949;48.482;9.206;2023-08-06T13:30:41;16.00;85.10
9820;DHT22;4949;48.482;9.206;2023-08-06T13:35:44;16.00;84.60
9820;DHT22;4949;48.482;9.206;2023-08-06T13:40:48;16.00;84.70
9820;DHT22;4949;48.482;9.206;2023-08-06T13:45:48;16.00;85.50
9820;DHT22;4949;48.482;9.206;2023-08-06T13:50:49;16.00;85.60
9820;DHT22;4949;48.482;9.206;2023-08-06T13:55:50;16.00;84.30
9820;DHT22;4949;48.482;9.206;2023-08-06T14:00:52;15.80;83.60
9820;DHT22;4949;48.482;9.206;2023-08-06T14:05:57;15.70;86.10
9820;DHT22;4949;48.482;9.206;2023-08-06T14:10:57;15.70;89.90
9820;DHT22;4949;48.482;9.206;2023-08-06T14:16:01;15.80;90.10
9820;DHT22;4949;48.482;9.206;2023-08-06T14:21:02;16.20;86.70
9820;DHT22;4949;48.482;9.206;2023-08-06T14:26:03;16.40;85.60
9820;DHT22;4949;48.482;9.206;2023-08-06T14:31:03;16.90;83.00
9820;DHT22;4949;48.482;9.206;2023-08-06T14:36:04;16.70;81.90
9820;DHT22;4949;48.482;9.206;2023-08-06T14:41:05;16.50;82.10
9820;DHT22;4949;48.482;9.206;2023-08-06T14:46:08;16.60;81.10
9820;DHT22;4949;48.482;9.206;2023-08-06T14:51:09;16.60;81.10
9820;DHT22;4949;48.482;9.206;2023-08-06T14:56:10;16.80;81.20
9820;DHT22;4949;48.482;9.206;2023-08-06T15:01:11;16.70;79.10
9820;DHT22;4949;48.482;9.206;2023-08-06T15:06:12;16.30;83.00
9820;DHT22;4949;48.482;9.206;2023-08-06T15:11:15;15.90;85.40
9820;DHT22;4949;48.482;9.206;2023-08-06T15:16:16;15.80;85.70
9820;DHT22;4949;48.482;9.206;2023-08-06T15:21:19;15.90;86.20
9820;DHT22;4949;48.482;9.206;2023-08-06T15:26:20;15.80;83.50
9820;DHT22;4949;48.482;9.206;2023-08-06T15:31:21;15.80;82.40
9820;DHT22;4949;48.482;9.206;2023-08-06T15:36:26;15.80;81.40
9820;DHT22;4949;48.482;9.206;2023-08-06T15:41:27;15.70;80.50
9820;DHT22;4949;48.482;9.206;2023-08-06T15:46:30;15.90;81.20
9820;DHT22;4949;48.482;9.206;2023-08-06T15:51:31;15.90;77.60
9820;DHT22;4949;48.482;9.206;2023-08-06T15:56:32;16.10;76.10
9820;DHT22;4949;48.482;9.206;2023-08-06T16:01:32;16.20;75.80
9820;DHT22;4949;48.482;9.206;2023-08-06T16:06:33;16.10;74.90
9820;DHT22;4949;48.482;9.206;2023-08-06T16:11:36;16.00;75.80
9820;DHT22;4949;48.482;9.206;2023-08-06T16:16:37;15.90;75.70
9820;DHT22;4949;48.482;9.206;2023-08-06T16:21:42;16.00;77.50
9820;DHT22;4949;48.482;9.206;2023-08-06T16:26:43;15.80;77.40
9820;DHT22;4949;48.482;9.206;2023-08-06T16:31:46;15.50;77.40
9820;DHT22;4949;48.482;9.206;2023-08-06T16:36:51;15.50;78.40
9820;DHT22;4949;48.482;9.206;2023-08-06T16:41:52;15.60;79.70
9820;DHT22;4949;48.482;9.206;2023-08-06T16:46:52;15.80;80.10
9820;DHT22;4949;48.482;9.206;2023-08-06T16:51:53;15.80;81.30
9820;DHT22;4949;48.482;9.206;2023-08-06T16:56:54;15.80;83.00
9820;DHT22;4949;48.482;9.206;2023-08-06T17:01:59;15.70;82.40
9820;DHT22;4949;48.482;9.206;2023-08-06T17:07:00;15.60;81.30
9820;DHT22;4949;48.482;9.206;2023-08-06T17:12:00;15.30;81.70
9820;DHT22;4949;48.482;9.206;2023-08-06T17:17:01;15.30;81.40
9820;DHT22;4949;48.482;9.206;2023-08-06T17:22:04;15.00;80.80
9820;DHT22;4949;48.482;9.206;2023-08-06T17:27:07;15.00;81.50
9820;DHT22;4949;48.482;9.206;2023-08-06T17:32:09;15.60;80.80
9820;DHT22;4949;48.482;9.206;2023-08-06T17:37:11;15.70;79.40
9820;DHT22;4949;48.482;9.206;2023-08-06T17:42:12;15.90;79.50
9820;DHT22;4949;48.482;9.206;2023-08-06T17:47:13;15.80;79.10
9820;DHT22;4949;48.482;9.206;2023-08-06T17:52:13;15.70;79.70
9820;DHT22;4949;48.482;9.206;2023-08-06T17:57:14;15.80;79.00
9820;DHT22;4949;48.482;9.206;2023-08-06T18:02:15;16.10;78.80
9820;DHT22;4949;48.482;9.206;2023-08-06T18:07:19;16.20;77.20
9820;DHT22;4949;48.482;9.206;2023-08-06T18:12:22;16.00;77.50
9820;DHT22;4949;48.482;9.206;2023-08-06T18:17:22;15.70;77.70
9820;DHT22;4949;48.482;9.206;2023-08-06T18:22:23;15.40;78.40
9820;DHT22;4949;48.482;9.206;2023-08-06T18:27:24;15.30;79.00
9820;DHT22;4949;48.482;9.206;2023-08-06T18:32:24;15.10;80.80
9820;DHT22;4949;48.482;9.206;2023-08-06T18:37:25;15.00;80.60
9820;DHT22;4949;48.482;9.206;2023-08-06T18:42:26;14.80;80.70
9820;DHT22;4949;48.482;9.206;2023-08-06T18:47:30;14.90;79.80
9820;DHT22;4949;48.482;9.206;2023-08-06T18:52:31;14.70;80.10
9820;DHT22;4949;48.482;9.206;2023-08-06T18:57:34;14.50;81.40
9820;DHT22;4949;48.482;9.206;2023-08-06T19:02:34;14.50;81.40
9820;DHT22;4949;48.482;9.206;2023-08-06T19:07:38;14.50;82.00
9820;DHT22;4949;48.482;9.206;2023-08-06T19:12:39;14.40;82.10
9820;DHT22;4949;48.482;9.206;2023-08-06T19:17:40;14.50;82.20
9820;DHT22;4949;48.482;9.206;2023-08-06T19:22:41;14.40;82.60
9820;DHT22;4949;48.482;9.206;2023-08-06T19:27:44;14.50;82.10
9820;DHT22;4949;48.482;9.206;2023-08-06T19:32:45;14.50;82.40
9820;DHT22;4949;48.482;9.206;2023-08-06T19:37:46;14.40;82.70
9820;DHT22;4949;48.482;9.206;2023-08-06T19:42:46;14.40;82.80
9820;DHT22;4949;48.482;9.206;2023-08-06T19:47:47;14.30;82.80
9820;DHT22;4949;48.482;9.206;2023-08-06T19:52:48;14.20;83.30
9820;DHT22;4949;48.482;9.206;2023-08-06T19:57:48;14.20;83.40
9820;DHT22;4949;48.482;9.206;2023-08-06T20:02:49;14.10;84.20
9820;DHT22;4949;48.482;9.206;2023-08-06T20:07:50;14.10;84.20
9820;DHT22;4949;48.482;9.206;2023-08-06T20:12:50;14.00;84.40
9820;DHT22;4949;48.482;9.206;2023-08-06T20:17:51;13.90;84.90
9820;DHT22;4949;48.482;9.206;2023-08-06T20:22:52;13.90;84.60
9820;DHT22;4949;48.482;9.206;2023-08-06T20:27:53;14.00;83.70
9820;DHT22;4949;48.482;9.206;2023-08-06T20:32:56;13.80;83.40
9820;DHT22;4949;48.482;9.206;2023-08-06T20:37:59;13.70;82.30
9820;DHT22;4949;48.482;9.206;2023-08-06T20:43:00;13.70;82.20
9820;DHT22;4949;48.482;9.206;2023-08-06T20:48:01;13.70;82.40
9820;DHT22;4949;48.482;9.206;2023-08-06T20:53:01;13.70;82.30
9820;DHT22;4949;48.482;9.206;2023-08-06T20:58:02;13.70;82.50
9820;DHT22;4949;48.482;9.206;2023-08-06T21:03:03;13.60;83.80
9820;DHT22;4949;48.482;9.206;2023-08-06T21:08:03;13.60;84.50
9820;DHT22;4949;48.482;9.206;2023-08-06T21:13:07;13.30;86.20
9820;DHT22;4949;48.482;9.206;2023-08-06T21:18:08;13.20;87.60
9820;DHT22;4949;48.482;9.206;2023-08-06T21:23:09;13.20;88.20
9820;DHT22;4949;48.482;9.206;2023-08-06T21:28:10;13.20;89.40
9820;DHT22;4949;48.482;9.206;2023-08-06T21:33:11;13.10;89.60
9820;DHT22;4949;48.482;9.206;2023-08-06T21:38:11;12.90;90.60
9820;DHT22;4949;48.482;9.206;2023-08-06T21:43:12;12.90;90.80
9820;DHT22;4949;48.482;9.206;2023-08-06T21:48:13;12.90;90.40
9820;DHT22;4949;48.482;9.206;2023-08-06T21:53:14;12.70;91.20
9820;DHT22;4949;48.482;9.206;2023-08-06T21:58:17;12.80;91.30
9820;DHT22;4949;48.482;9.206;2023-08-06T22:03:20;12.60;91.20
9820;DHT22;4949;48.482;9.206;2023-08-06T22:08:20;12.50;92.00
9820;DHT22;4949;48.482;9.206;2023-08-06T22:13:21;12.40;92.00
9820;DHT22;4949;48.482;9.206;2023-08-06T22:18:22;12.50;91.80
9820;DHT22;4949;48.482;9.206;2023-08-06T22:23:26;12.50;92.00
9820;DHT22;4949;48.482;9.206;2023-08-06T22:28:27;12.50;91.90
9820;DHT22;4949;48.482;9.206;2023-08-06T22:33:28;12.50;92.00
9820;DHT22;4949;48.482;9.206;2023-08-06T22:38:32;12.50;91.40
9820;DHT22;4949;48.482;9.206;2023-08-06T22:43:35;12.60;91.50
9820;DHT22;4949;48.482;9.206;2023-08-06T22:48:36;12.50;91.80
9820;DHT22;4949;48.482;9.206;2023-08-06T22:53:39;12.50;91.80
9820;DHT22;4949;48.482;9.206;2023-08-06T22:58:40;12.50;91.50
9820;DHT22;4949;48.482;9.206;2023-08-06T23:03:40;12.50;91.70
9820;DHT22;4949;48.482;9.206;2023-08-06T23:08:41;12.50;91.40
9820;DHT22;4949;48.482;9.206;2023-08-06T23:13:42;12.60;91.70
9820;DHT22;4949;48.482;9.206;2023-08-06T23:18:45;12.40;91.00
9820;DHT22;4949;48.482;9.206;2023-08-06T23:23:45;12.40;91.10
9820;DHT22;4949;48.482;9.206;2023-08-06T23:28:49;12.40;91.00
9820;DHT22;4949;48.482;9.206;2023-08-06T23:33:53;12.40;90.80
9820;DHT22;4949;48.482;9.206;2023-08-06T23:38:56;12.40;90.90
9820;DHT22;4949;48.482;9.206;2023-08-06T23:43:59;12.40;90.50
9820;DHT22;4949;48.482;9.206;2023-08-06T23:49:00;12.40;90.50
9820;DHT22;4949;48.482;9.206;2023-08-06T23:54:01;12.40;90.40
9820;DHT22;4949;48.482;9.206;2023-08-06T23:59:01;12.40;90.00
